Time;durP1;ratioP1;P1;durP2;ratioP2;P2;SDS_P1;SDS_P2;PMS_P1;PMS_P2;Temp;Humidity;BMP_temperature;BMP_pressure;BME280_temperature;BME280_humidity;BME280_pressure;Samples;Min_cycle;Max_cycle;Signal;HPM_P1;HPM_P2
2021/09/12 00:02:20;;;;;;;6.65;3.22;;;18.60;99.90;;;;;;4901356;29;20036;-72
2021/09/12 00:04:46;;;;;;;6.88;2.78;;;18.60;99.90;;;;;;4900449;29;20055;-72
2021/09/12 00:07:12;;;;;;;5.63;2.60;;;18.60;99.90;;;;;;4899351;29;20132;-72
2021/09/12 00:09:38;;;;;;;10.98;3.10;;;18.50;99.90;;;;;;4899563;29;20056;-72
2021/09/12 00:12:04;;;;;;;7.70;2.90;;;18.50;99.90;;;;;;4901076;29;20500;-72
2021/09/12 00:14:30;;;;;;;4.85;2.45;;;18.50;99.90;;;;;;4901119;29;20036;-72
2021/09/12 00:16:55;;;;;;;4.85;2.42;;;18.50;99.90;;;;;;4901061;29;20021;-73
2021/09/12 00:19:22;;;;;;;6.90;2.42;;;18.50;99.90;;;;;;4898363;29;20083;-72
2021/09/12 00:21:47;;;;;;;9.02;3.28;;;18.50;99.90;;;;;;4915377;29;20103;-72
2021/09/12 00:24:13;;;;;;;6.75;2.63;;;18.40;99.90;;;;;;4900954;29;20028;-72
2021/09/12 00:26:38;;;;;;;7.40;2.75;;;18.40;99.90;;;;;;4901051;29;20029;-72
2021/09/12 00:29:04;;;;;;;7.68;3.85;;;18.40;99.90;;;;;;4900559;29;20379;-72
2021/09/12 00:31:30;;;;;;;10.25;3.15;;;18.40;99.90;;;;;;4911307;29;20044;-72
2021/09/12 00:33:55;;;;;;;5.88;2.65;;;18.30;99.90;;;;;;4900580;29;20033;-72
2021/09/12 00:36:21;;;;;;;7.95;2.42;;;18.30;99.90;;;;;;4900123;29;20139;-72
2021/09/12 00:38:47;;;;;;;10.30;2.90;;;18.20;99.90;;;;;;4900719;29;20033;-72
2021/09/12 00:41:13;;;;;;;10.77;2.72;;;18.30;99.90;;;;;;4902163;29;20041;-72
2021/09/12 00:43:38;;;;;;;11.45;3.00;;;18.30;99.90;;;;;;4900037;29;20016;-72
2021/09/12 00:46:07;;;;;;;10.32;3.35;;;18.20;99.90;;;;;;4900450;29;20084;-72
2021/09/12 00:48:34;;;;;;;16.00;3.72;;;18.20;99.90;;;;;;4900446;29;20032;-72
2021/09/12 00:51:00;;;;;;;4.15;2.83;;;18.10;99.90;;;;;;4900604;29;20115;-72
2021/09/12 00:53:29;;;;;;;10.07;3.47;;;18.10;99.90;;;;;;4900387;29;20099;-72
2021/09/12 00:55:55;;;;;;;9.40;4.30;;;18.10;99.90;;;;;;4899664;29;20119;-72
2021/09/12 00:58:21;;;;;;;8.65;3.03;;;18.00;99.90;;;;;;4900383;29;20029;-72
2021/09/12 01:00:47;;;;;;;8.65;2.88;;;18.00;99.90;;;;;;4899996;29;20038;-72
2021/09/12 01:03:12;;;;;;;8.57;3.25;;;18.00;99.90;;;;;;4900449;29;20025;-72
2021/09/12 01:05:38;;;;;;;5.90;3.00;;;18.00;99.90;;;;;;4899035;29;20041;-72
2021/09/12 01:08:06;;;;;;;9.57;2.97;;;17.90;99.90;;;;;;4900028;29;20084;-72
2021/09/12 01:10:32;;;;;;;7.72;3.45;;;17.90;99.90;;;;;;4900366;29;20115;-72
2021/09/12 01:12:58;;;;;;;8.32;3.50;;;17.80;99.90;;;;;;4898848;29;20243;-72
2021/09/12 01:15:23;;;;;;;9.80;3.00;;;17.80;99.90;;;;;;4898804;29;20025;-72
2021/09/12 01:17:49;;;;;;;7.47;2.67;;;17.70;99.90;;;;;;4899473;29;20048;-72
2021/09/12 01:20:14;;;;;;;9.20;3.20;;;17.70;99.90;;;;;;4900034;29;20028;-72
2021/09/12 01:22:40;;;;;;;4.22;2.97;;;17.60;99.90;;;;;;4900401;29;20021;-72
2021/09/12 01:25:07;;;;;;;6.28;2.95;;;17.60;99.90;;;;;;4898782;29;20024;-72
2021/09/12 01:27:33;;;;;;;6.40;2.78;;;17.50;99.90;;;;;;4899822;29;20470;-73
2021/09/12 01:30:00;;;;;;;6.80;3.13;;;17.50;99.90;;;;;;4898763;29;20117;-72
2021/09/12 01:32:28;;;;;;;7.60;3.67;;;17.40;99.90;;;;;;4900147;29;20451;-72
2021/09/12 01:34:53;;;;;;;12.77;3.50;;;17.40;99.90;;;;;;4899244;29;20053;-72
2021/09/12 01:37:19;;;;;;;7.85;3.92;;;17.30;99.90;;;;;;4898011;29;20041;-73
2021/09/12 01:39:44;;;;;;;10.65;3.25;;;17.30;99.90;;;;;;4914024;29;20043;-72
2021/09/12 01:42:10;;;;;;;12.73;3.78;;;17.30;99.90;;;;;;4899779;29;20103;-72
2021/09/12 01:44:36;;;;;;;6.07;3.65;;;17.20;99.90;;;;;;4894279;29;20025;-72
2021/09/12 01:47:01;;;;;;;7.50;4.00;;;17.20;99.90;;;;;;4893916;29;20100;-72
2021/09/12 01:49:27;;;;;;;12.13;3.50;;;17.20;99.90;;;;;;4899336;29;20029;-72
2021/09/12 01:51:53;;;;;;;20.27;3.20;;;17.20;99.90;;;;;;4899457;29;20059;-72
2021/09/12 01:54:19;;;;;;;11.90;4.05;;;17.20;99.90;;;;;;4899332;29;20021;-72
2021/09/12 01:56:45;;;;;;;5.20;3.63;;;17.10;99.90;;;;;;4897279;29;20425;-72
2021/09/12 01:59:11;;;;;;;7.47;4.05;;;17.10;99.90;;;;;;4899096;29;20029;-72
2021/09/12 02:01:36;;;;;;;5.97;3.30;;;17.10;99.90;;;;;;4899149;29;20021;-72
2021/09/12 02:04:02;;;;;;;9.65;3.67;;;17.10;99.90;;;;;;4897393;29;20124;-72
2021/09/12 02:06:28;;;;;;;8.93;3.35;;;17.00;99.90;;;;;;4898516;29;20021;-72
2021/09/12 02:08:54;;;;;;;14.10;4.43;;;17.00;99.90;;;;;;4898794;29;20397;-72
2021/09/12 02:11:20;;;;;;;10.70;4.68;;;16.90;99.90;;;;;;4913090;29;20049;-72
2021/09/12 02:13:45;;;;;;;10.55;3.50;;;16.90;99.90;;;;;;4898446;29;20025;-72
2021/09/12 02:16:11;;;;;;;8.43;4.00;;;16.80;99.90;;;;;;4898273;29;20032;-72
2021/09/12 02:18:37;;;;;;;7.45;3.65;;;16.80;99.90;;;;;;4898685;29;20033;-72
2021/09/12 02:21:03;;;;;;;7.53;3.45;;;16.80;99.90;;;;;;4898778;29;20036;-72
2021/09/12 02:23:28;;;;;;;8.40;4.10;;;16.70;99.90;;;;;;4898635;29;20017;-72
2021/09/12 02:25:54;;;;;;;10.07;4.70;;;16.70;99.90;;;;;;4898798;29;20029;-72
2021/09/12 02:28:20;;;;;;;16.20;4.47;;;16.70;99.90;;;;;;4912791;29;20107;-73
2021/09/12 02:30:46;;;;;;;6.60;4.13;;;16.60;99.90;;;;;;4898698;29;20036;-72
2021/09/12 02:33:12;;;;;;;11.05;4.97;;;16.50;99.90;;;;;;4898626;29;20080;-72
2021/09/12 02:35:37;;;;;;;8.55;3.67;;;16.50;99.90;;;;;;4898611;29;20028;-72
2021/09/12 02:38:03;;;;;;;12.65;4.45;;;16.40;99.90;;;;;;4898235;29;20037;-72
2021/09/12 02:40:28;;;;;;;14.27;4.47;;;16.40;99.90;;;;;;4912665;29;20040;-72
2021/09/12 02:42:54;;;;;;;7.60;3.95;;;16.40;99.90;;;;;;4898426;29;20025;-72
2021/09/12 02:45:20;;;;;;;8.25;4.40;;;16.40;99.90;;;;;;4898102;29;20032;-72
2021/09/12 02:47:46;;;;;;;11.77;5.13;;;16.30;99.90;;;;;;4898016;29;20021;-72
2021/09/12 02:50:11;;;;;;;16.52;5.32;;;16.30;99.90;;;;;;4896240;29;20270;-72
2021/09/12 02:52:37;;;;;;;17.52;5.53;;;16.30;99.90;;;;;;4898248;29;20021;-72
2021/09/12 02:55:04;;;;;;;12.32;5.45;;;16.30;99.90;;;;;;4898402;29;20035;-71
2021/09/12 02:57:30;;;;;;;15.98;6.60;;;16.30;99.90;;;;;;4897244;29;20048;-71
2021/09/12 02:59:56;;;;;;;18.85;6.18;;;16.30;99.90;;;;;;4897622;29;20087;-71
2021/09/12 03:02:40;;;;;;;11.80;4.63;;;16.30;99.90;;;;;;4897359;29;20025;-71
2021/09/12 03:05:07;;;;;;;10.98;5.30;;;16.30;99.90;;;;;;4896663;29;20068;-71
2021/09/12 03:07:32;;;;;;;8.90;4.88;;;16.20;99.90;;;;;;4898777;29;20039;-72
2021/09/12 03:09:58;;;;;;;10.85;4.97;;;16.20;99.90;;;;;;4898929;29;20099;-72
2021/09/12 03:12:24;;;;;;;13.80;4.95;;;16.20;99.90;;;;;;4897301;29;20024;-72
2021/09/12 03:14:50;;;;;;;11.20;4.57;;;16.20;99.90;;;;;;4897804;29;20422;-72
2021/09/12 03:17:15;;;;;;;22.67;5.68;;;16.20;99.90;;;;;;4899210;29;20060;-72
2021/09/12 03:19:41;;;;;;;20.52;7.05;;;16.20;99.90;;;;;;4904868;29;20469;-72
2021/09/12 03:22:07;;;;;;;13.50;5.45;;;16.10;99.90;;;;;;4906007;29;20025;-72
2021/09/12 03:24:33;;;;;;;10.55;4.97;;;16.10;99.90;;;;;;4906414;29;20039;-73
2021/09/12 03:26:58;;;;;;;15.75;5.88;;;16.00;99.90;;;;;;4905299;29;20044;-73
2021/09/12 03:29:24;;;;;;;11.82;5.43;;;16.00;99.90;;;;;;4905809;29;20028;-72
2021/09/12 03:31:49;;;;;;;13.77;5.45;;;16.00;99.90;;;;;;4920037;29;20462;-73
2021/09/12 03:34:16;;;;;;;22.65;6.80;;;16.00;99.90;;;;;;4905902;29;20038;-73
2021/09/12 03:36:41;;;;;;;18.50;6.93;;;15.90;99.90;;;;;;4905703;29;20128;-72
2021/09/12 03:39:07;;;;;;;13.77;6.50;;;15.90;99.90;;;;;;4906953;29;20056;-72
2021/09/12 03:41:33;;;;;;;15.85;5.95;;;15.90;99.90;;;;;;4904910;29;20028;-72
2021/09/12 03:43:58;;;;;;;17.23;6.70;;;15.80;99.90;;;;;;4918731;29;20024;-72
2021/09/12 03:46:24;;;;;;;13.52;6.63;;;15.90;99.90;;;;;;4910110;29;20028;-72
2021/09/12 03:48:49;;;;;;;15.00;6.70;;;15.90;99.90;;;;;;4915124;29;20100;-73
2021/09/12 03:51:15;;;;;;;15.63;6.68;;;15.80;99.90;;;;;;4915977;29;20032;-71
2021/09/12 03:53:41;;;;;;;17.02;6.25;;;15.80;99.90;;;;;;4915409;29;20036;-72
2021/09/12 03:56:06;;;;;;;17.90;7.10;;;15.70;99.90;;;;;;4930332;29;20036;-72
2021/09/12 03:58:32;;;;;;;18.17;6.70;;;15.70;99.90;;;;;;4915104;29;20079;-72
2021/09/12 04:00:57;;;;;;;12.50;6.47;;;15.70;99.90;;;;;;4915083;29;20403;-72
2021/09/12 04:03:23;;;;;;;12.82;6.32;;;15.70;99.90;;;;;;4916484;29;20032;-72
2021/09/12 04:05:49;;;;;;;12.98;5.78;;;15.70;99.90;;;;;;4913357;29;20041;-72
2021/09/12 04:08:15;;;;;;;14.98;6.72;;;15.70;99.90;;;;;;4916286;29;20036;-72
2021/09/12 04:10:40;;;;;;;20.15;8.00;;;15.60;99.90;;;;;;4916696;29;20020;-71
2021/09/12 04:13:06;;;;;;;22.15;7.47;;;15.60;99.90;;;;;;4907351;29;20044;-71
2021/09/12 04:15:31;;;;;;;14.88;8.02;;;15.60;99.90;;;;;;4900542;29;20044;-71
2021/09/12 04:17:57;;;;;;;13.50;7.47;;;15.60;99.90;;;;;;4899945;29;20036;-71
2021/09/12 04:20:23;;;;;;;12.98;7.03;;;15.60;99.90;;;;;;4900218;29;20036;-71
2021/09/12 04:22:49;;;;;;;15.63;6.20;;;15.60;99.90;;;;;;4900187;29;20607;-71
2021/09/12 04:25:14;;;;;;;15.40;6.68;;;15.60;99.90;;;;;;4898373;29;20060;-71
2021/09/12 04:27:40;;;;;;;12.50;6.78;;;15.60;99.90;;;;;;4899964;29;20076;-71
2021/09/12 04:30:08;;;;;;;19.90;7.80;;;15.60;99.90;;;;;;4899054;29;20024;-71
2021/09/12 04:32:33;;;;;;;19.20;7.20;;;15.60;99.90;;;;;;4897951;29;20135;-71
2021/09/12 04:34:59;;;;;;;13.30;6.15;;;15.60;99.90;;;;;;4898548;29;20048;-71
2021/09/12 04:37:25;;;;;;;15.48;6.80;;;15.60;99.90;;;;;;4900608;29;20064;-71
2021/09/12 04:39:50;;;;;;;23.52;7.57;;;15.70;99.90;;;;;;4901651;29;20107;-71
2021/09/12 04:42:16;;;;;;;13.73;6.50;;;15.70;99.90;;;;;;4901064;29;20028;-71
2021/09/12 04:44:42;;;;;;;13.63;7.22;;;15.70;99.90;;;;;;4900596;29;20075;-72
2021/09/12 04:47:07;;;;;;;18.48;7.03;;;15.70;99.90;;;;;;4900751;29;20029;-71
2021/09/12 04:49:33;;;;;;;13.85;6.55;;;15.70;99.90;;;;;;4900441;29;20386;-71
2021/09/12 04:51:58;;;;;;;17.80;8.25;;;15.70;99.90;;;;;;4900697;29;20152;-71
2021/09/12 04:54:24;;;;;;;19.58;7.63;;;15.70;99.90;;;;;;4900983;29;20059;-71
2021/09/12 04:56:50;;;;;;;28.85;7.75;;;15.70;99.90;;;;;;4900238;29;20447;-71
2021/09/12 04:59:15;;;;;;;14.73;7.38;;;15.80;99.90;;;;;;4914221;29;20044;-71
2021/09/12 05:01:41;;;;;;;20.45;7.78;;;15.80;99.90;;;;;;4900500;29;20021;-71
2021/09/12 05:04:07;;;;;;;18.05;8.20;;;15.80;99.90;;;;;;4899967;29;20036;-71
2021/09/12 05:06:32;;;;;;;22.02;7.55;;;15.80;99.90;;;;;;4899805;29;20020;-71
2021/09/12 05:08:58;;;;;;;21.60;8.30;;;15.80;99.90;;;;;;4899995;29;20032;-71
2021/09/12 05:11:23;;;;;;;22.95;8.27;;;15.80;99.90;;;;;;4900044;29;20067;-71
2021/09/12 05:13:49;;;;;;;17.35;8.55;;;15.90;99.90;;;;;;4899926;29;20028;-71
2021/09/12 05:16:14;;;;;;;23.85;8.07;;;15.90;99.90;;;;;;4899932;29;20032;-71
2021/09/12 05:18:40;;;;;;;21.02;8.88;;;15.90;99.90;;;;;;4898699;29;20025;-71
2021/09/12 05:21:06;;;;;;;14.55;8.00;;;15.90;99.90;;;;;;4900171;29;20084;-71
2021/09/12 05:23:31;;;;;;;20.63;10.00;;;15.90;99.90;;;;;;4898832;29;20088;-71
2021/09/12 05:25:57;;;;;;;21.05;9.02;;;15.90;99.90;;;;;;4897204;29;20123;-71
2021/09/12 05:28:22;;;;;;;19.08;8.77;;;15.90;99.90;;;;;;4899655;29;20025;-71
2021/09/12 05:30:48;;;;;;;20.10;8.80;;;16.00;99.90;;;;;;4899484;29;20111;-71
2021/09/12 05:33:14;;;;;;;17.17;9.20;;;16.00;99.90;;;;;;4899240;29;20046;-71
2021/09/12 05:35:40;;;;;;;19.75;9.32;;;16.00;99.90;;;;;;4913349;29;20044;-71
2021/09/12 05:38:06;;;;;;;20.42;9.30;;;16.00;99.90;;;;;;4899907;29;20036;-71
2021/09/12 05:40:32;;;;;;;20.67;9.80;;;16.10;99.90;;;;;;4898303;29;20028;-71
2021/09/12 05:42:58;;;;;;;17.52;8.80;;;16.10;99.90;;;;;;4899404;29;20049;-71
2021/09/12 05:45:24;;;;;;;25.95;8.98;;;16.10;99.90;;;;;;4897663;29;20482;-71
2021/09/12 05:47:50;;;;;;;28.65;10.15;;;16.10;99.90;;;;;;4897260;29;20044;-72
2021/09/12 05:50:15;;;;;;;17.95;8.20;;;16.10;99.90;;;;;;4897478;29;20047;-71
2021/09/12 05:52:41;;;;;;;19.88;9.00;;;16.20;99.90;;;;;;4913585;29;20512;-72
2021/09/12 05:55:07;;;;;;;17.95;8.25;;;16.20;99.90;;;;;;4897739;29;20028;-72
2021/09/12 05:57:33;;;;;;;22.30;8.75;;;16.20;99.90;;;;;;4899386;29;20028;-71
2021/09/12 05:59:59;;;;;;;20.00;9.35;;;16.20;99.90;;;;;;4899135;29;20040;-71
2021/09/12 06:02:25;;;;;;;17.58;8.57;;;16.30;99.90;;;;;;4913806;29;20093;-71
2021/09/12 06:04:50;;;;;;;22.65;10.00;;;16.30;99.90;;;;;;4898341;29;20052;-71
2021/09/12 06:07:16;;;;;;;23.60;9.07;;;16.30;99.90;;;;;;4898812;29;20533;-71
2021/09/12 06:09:42;;;;;;;20.75;9.55;;;16.30;99.90;;;;;;4897665;29;20041;-71
2021/09/12 06:12:08;;;;;;;21.38;9.48;;;16.30;99.90;;;;;;4899024;29;20032;-71
2021/09/12 06:14:35;;;;;;;19.63;9.77;;;16.30;99.90;;;;;;4899082;29;20084;-72
2021/09/12 06:17:04;;;;;;;19.98;8.18;;;16.30;99.90;;;;;;4896479;29;20032;-72
2021/09/12 06:19:31;;;;;;;22.85;8.93;;;16.40;99.90;;;;;;4899042;29;20028;-71
2021/09/12 06:21:56;;;;;;;19.33;7.65;;;16.40;99.90;;;;;;4898841;29;20107;-71
2021/09/12 06:24:22;;;;;;;18.23;8.43;;;16.50;99.90;;;;;;4896829;29;20528;-72
2021/09/12 06:26:47;;;;;;;19.45;8.93;;;16.50;99.90;;;;;;4897322;29;20378;-71
2021/09/12 06:29:13;;;;;;;21.00;9.07;;;16.60;99.90;;;;;;4896387;29;20037;-72
2021/09/12 06:31:39;;;;;;;18.17;8.57;;;16.60;99.90;;;;;;4898150;29;20028;-72
2021/09/12 06:34:04;;;;;;;18.85;8.73;;;16.60;99.90;;;;;;4897984;29;20390;-74
2021/09/12 06:36:30;;;;;;;18.75;8.63;;;16.60;99.90;;;;;;4898507;29;20040;-71
2021/09/12 06:38:55;;;;;;;21.05;8.95;;;16.70;99.90;;;;;;4897981;29;20176;-72
2021/09/12 06:41:21;;;;;;;19.52;8.48;;;16.60;99.90;;;;;;4897777;29;20179;-72
2021/09/12 06:43:47;;;;;;;14.35;8.43;;;16.70;99.90;;;;;;4898429;29;20100;-72
2021/09/12 06:46:12;;;;;;;18.90;9.27;;;16.60;99.90;;;;;;4897180;29;20035;-74
2021/09/12 06:48:38;;;;;;;19.90;9.38;;;16.60;99.90;;;;;;4897518;29;20028;-72
2021/09/12 06:51:03;;;;;;;28.50;9.32;;;16.70;99.90;;;;;;4898456;29;20438;-71
2021/09/12 06:53:29;;;;;;;23.27;9.27;;;16.70;99.90;;;;;;4898187;29;20029;-71
2021/09/12 06:55:55;;;;;;;24.30;8.93;;;16.70;99.90;;;;;;4896792;29;20029;-72
2021/09/12 06:58:20;;;;;;;15.95;8.75;;;16.70;99.90;;;;;;4897796;29;20048;-72
2021/09/12 07:00:46;;;;;;;22.42;9.35;;;16.70;99.90;;;;;;4897895;29;20056;-71
2021/09/12 07:03:12;;;;;;;18.40;8.65;;;16.70;99.90;;;;;;4897403;29;20084;-71
2021/09/12 07:05:37;;;;;;;18.20;8.63;;;16.70;99.90;;;;;;4912074;29;20047;-71
2021/09/12 07:08:04;;;;;;;21.73;8.45;;;16.80;99.90;;;;;;4897812;29;20486;-72
2021/09/12 07:10:30;;;;;;;19.67;8.85;;;16.80;99.90;;;;;;4912480;29;20091;-71
2021/09/12 07:12:55;;;;;;;17.75;9.00;;;16.80;99.90;;;;;;4897644;29;20032;-72
2021/09/12 07:15:21;;;;;;;15.98;9.13;;;16.90;99.90;;;;;;4897839;29;20028;-72
2021/09/12 07:17:46;;;;;;;19.60;8.85;;;17.00;99.90;;;;;;4897686;29;20044;-72
2021/09/12 07:20:13;;;;;;;18.20;9.65;;;17.00;99.90;;;;;;4897872;29;20037;-72
2021/09/12 07:22:38;;;;;;;25.65;10.18;;;17.00;99.90;;;;;;4897427;29;20155;-72
2021/09/12 07:25:05;;;;;;;18.83;8.88;;;17.10;99.90;;;;;;4897573;29;20068;-72
2021/09/12 07:27:31;;;;;;;24.80;9.48;;;17.10;99.90;;;;;;4897942;29;20032;-71
2021/09/12 07:29:56;;;;;;;27.42;9.73;;;17.20;99.90;;;;;;4897466;29;20331;-72
2021/09/12 07:32:22;;;;;;;28.73;10.32;;;17.20;99.90;;;;;;4896590;29;20131;-71
2021/09/12 07:34:47;;;;;;;30.48;9.90;;;17.20;99.90;;;;;;4897602;29;20067;-72
2021/09/12 07:37:13;;;;;;;16.45;8.98;;;17.20;99.90;;;;;;4897574;29;20039;-72
2021/09/12 07:39:39;;;;;;;20.63;9.80;;;17.10;99.90;;;;;;4897788;29;20088;-72
2021/09/12 07:42:05;;;;;;;26.00;9.63;;;17.10;99.90;;;;;;4896029;29;20060;-72
2021/09/12 07:44:30;;;;;;;22.88;9.13;;;17.20;99.90;;;;;;4897197;29;20040;-72
2021/09/12 07:46:56;;;;;;;25.17;10.13;;;17.20;99.90;;;;;;4897534;29;20414;-72
2021/09/12 07:49:21;;;;;;;22.25;9.52;;;17.20;99.90;;;;;;4897354;29;20120;-72
2021/09/12 07:51:47;;;;;;;23.65;11.05;;;17.20;99.90;;;;;;4897676;29;20032;-71
2021/09/12 07:54:13;;;;;;;33.97;13.05;;;17.30;99.90;;;;;;4897484;29;20044;-72
2021/09/12 07:56:38;;;;;;;23.88;10.55;;;17.30;99.90;;;;;;4897364;29;20024;-72
2021/09/12 07:59:04;;;;;;;29.50;12.75;;;17.30;99.90;;;;;;4897848;29;20036;-71
2021/09/12 08:01:29;;;;;;;29.08;11.23;;;17.30;99.90;;;;;;4896570;29;20032;-71
2021/09/12 08:03:55;;;;;;;25.67;10.70;;;17.30;99.90;;;;;;4895887;29;20135;-71
2021/09/12 08:06:22;;;;;;;24.30;10.43;;;17.30;99.90;;;;;;4896546;29;20053;-72
2021/09/12 08:08:48;;;;;;;24.10;10.90;;;17.30;99.90;;;;;;4897744;29;20039;-71
2021/09/12 08:11:13;;;;;;;31.77;11.48;;;17.30;99.90;;;;;;4896792;29;20391;-71
2021/09/12 08:13:39;;;;;;;20.38;11.10;;;17.40;99.90;;;;;;4899910;29;20084;-70
2021/09/12 08:16:07;;;;;;;28.50;11.77;;;17.40;99.90;;;;;;4901086;29;20033;-71
2021/09/12 08:18:32;;;;;;;26.17;10.77;;;17.40;99.90;;;;;;4901174;29;20028;-72
2021/09/12 08:20:58;;;;;;;25.10;11.23;;;17.40;99.90;;;;;;4901123;29;20379;-72
2021/09/12 08:23:23;;;;;;;25.58;11.85;;;17.50;99.90;;;;;;4901197;29;20025;-71
2021/09/12 08:25:49;;;;;;;25.13;12.15;;;17.50;99.90;;;;;;4901014;29;20037;-72
2021/09/12 08:28:15;;;;;;;38.13;13.02;;;17.50;99.90;;;;;;4901047;29;20056;-73
2021/09/12 08:30:40;;;;;;;25.05;11.82;;;17.60;99.90;;;;;;4900155;29;20037;-71
2021/09/12 08:33:11;;;;;;;34.85;12.63;;;17.70;99.90;;;;;;4899938;29;20052;-71
2021/09/12 08:35:37;;;;;;;27.42;12.27;;;17.80;99.90;;;;;;4899470;29;20040;-71
2021/09/12 08:38:02;;;;;;;36.33;13.43;;;18.00;99.90;;;;;;4898966;29;20029;-76
2021/09/12 08:40:28;;;;;;;36.05;15.50;;;18.10;99.90;;;;;;4900997;29;20027;-72
2021/09/12 08:42:54;;;;;;;30.50;13.57;;;18.20;99.90;;;;;;4899707;29;20025;-75
2021/09/12 08:45:23;;;;;;;33.30;14.75;;;18.20;99.90;;;;;;4900098;29;20025;-72
2021/09/12 08:47:49;;;;;;;37.97;13.82;;;18.30;99.90;;;;;;4898170;29;20036;-72
2021/09/12 08:50:15;;;;;;;36.00;13.98;;;18.30;99.90;;;;;;4897430;29;20039;-72
2021/09/12 08:52:43;;;;;;;35.63;14.55;;;18.30;99.90;;;;;;4900001;29;20064;-72
2021/09/12 08:55:08;;;;;;;28.13;13.30;;;18.40;99.90;;;;;;4899480;29;20520;-72
2021/09/12 08:57:34;;;;;;;33.78;13.52;;;18.40;99.90;;;;;;4899009;29;20025;-72
2021/09/12 08:59:59;;;;;;;36.67;13.65;;;18.50;99.90;;;;;;4901499;29;20032;-73
2021/09/12 09:02:26;;;;;;;38.38;15.65;;;18.60;99.90;;;;;;4912197;29;20036;-72
2021/09/12 09:05:04;;;;;;;37.03;15.80;;;18.60;99.90;;;;;;4897903;29;20052;-73
2021/09/12 09:07:30;;;;;;;;;;;18.60;99.90;;;;;;4900257;29;20021;-72
2021/09/12 09:09:57;;;;;;;39.10;14.82;;;18.60;99.90;;;;;;4899743;29;19911;-72
2021/09/12 09:12:37;;;;;;;33.50;14.68;;;18.50;99.90;;;;;;4898133;29;20044;-72
2021/09/12 09:15:15;;;;;;;38.40;16.63;;;18.50;99.90;;;;;;4897955;29;20087;-72
2021/09/12 09:17:47;;;;;;;38.78;14.93;;;18.70;99.90;;;;;;4894616;29;20044;-72
2021/09/12 09:20:17;;;;;;;37.92;16.60;;;18.80;99.90;;;;;;4899257;29;20036;-71
2021/09/12 09:22:49;;;;;;;32.60;15.18;;;18.80;99.90;;;;;;4896805;29;20028;-71
2021/09/12 09:25:18;;;;;;;40.83;16.17;;;18.90;99.90;;;;;;4898260;29;20027;-72
2021/09/12 09:28:09;;;;;;;29.83;14.15;;;18.90;99.90;;;;;;4911637;29;20035;-72
2021/09/12 09:30:54;;;;;;;37.75;15.20;;;19.00;99.90;;;;;;4897506;29;20435;-73
2021/09/12 09:33:25;;;;;;;34.97;16.83;;;19.10;99.90;;;;;;4897516;29;20036;-73
2021/09/12 09:36:02;;;;;;;34.60;15.02;;;19.10;99.90;;;;;;4894862;29;20028;-73
2021/09/12 09:38:33;;;;;;;39.72;15.70;;;19.10;99.90;;;;;;4914225;29;20031;-73
2021/09/12 09:41:05;;;;;;;29.85;15.10;;;19.10;99.90;;;;;;4898098;29;20087;-72
2021/09/12 09:43:43;;;;;;;38.67;16.95;;;19.10;99.90;;;;;;4899176;29;20029;-71
2021/09/12 09:46:41;;;;;;;28.15;13.48;;;19.10;99.90;;;;;;4897037;29;20486;-72
2021/09/12 09:49:27;;;;;;;35.60;17.90;;;19.20;99.90;;;;;;4896635;29;20037;-72
2021/09/12 09:52:01;;;;;;;29.33;15.20;;;19.40;99.90;;;;;;4898982;29;20035;-71
2021/09/12 09:54:32;;;;;;;34.80;16.75;;;19.40;99.90;;;;;;4898220;29;20052;-72
2021/09/12 09:56:58;;;;;;;31.75;16.25;;;19.50;99.90;;;;;;4898840;29;20035;-72
2021/09/12 09:59:27;;;;;;;32.28;15.48;;;19.60;99.90;;;;;;4899175;29;20067;-72
2021/09/12 10:01:55;;;;;;;39.17;16.48;;;19.50;99.90;;;;;;4898152;29;20028;-72
2021/09/12 10:04:23;;;;;;;32.90;15.60;;;19.50;99.90;;;;;;4898023;29;20104;-72
2021/09/12 10:07:09;;;;;;;36.05;16.08;;;19.60;99.90;;;;;;4897879;29;20025;-72
2021/09/12 10:09:36;;;;;;;30.63;15.45;;;19.60;99.90;;;;;;4898896;29;20541;-72
2021/09/12 10:12:07;;;;;;;39.78;17.75;;;19.60;99.90;;;;;;4911929;29;20048;-72
2021/09/12 10:14:55;;;;;;;35.35;15.15;;;19.60;99.90;;;;;;4897929;29;20045;-73
2021/09/12 10:17:24;;;;;;;34.95;16.60;;;19.70;99.90;;;;;;4894463;29;20103;-73
2021/09/12 10:20:04;;;;;;;36.05;17.38;;;19.70;99.90;;;;;;4898621;29;20438;-74
2021/09/12 10:22:30;;;;;;;38.58;16.48;;;19.90;99.90;;;;;;4898663;29;20071;-74
2021/09/12 10:25:01;;;;;;;28.92;15.45;;;20.10;99.90;;;;;;4897248;29;20056;-74
2021/09/12 10:27:38;;;;;;;31.63;16.10;;;20.30;99.90;;;;;;4913000;29;20115;-75
2021/09/12 10:30:25;;;;;;;29.08;15.25;;;20.60;99.90;;;;;;4899741;29;20438;-75
2021/09/12 10:33:12;;;;;;;31.30;15.82;;;20.90;99.90;;;;;;4913854;29;20399;-71
2021/09/12 10:35:54;;;;;;;34.55;16.52;;;21.00;99.90;;;;;;4892253;29;20041;-71
2021/09/12 10:38:43;;;;;;;33.42;16.20;;;21.00;99.90;;;;;;4894842;29;20119;-71
2021/09/12 10:41:14;;;;;;;34.17;17.05;;;21.00;99.90;;;;;;4900427;29;20020;-71
2021/09/12 10:43:41;;;;;;;32.33;16.75;;;21.00;99.90;;;;;;4897580;29;20076;-72
2021/09/12 10:46:07;;;;;;;39.67;17.75;;;21.00;99.90;;;;;;4899224;29;20032;-74
2021/09/12 10:48:39;;;;;;;39.30;17.88;;;21.10;99.90;;;;;;4902644;29;20529;-72
2021/09/12 10:51:17;;;;;;;40.28;16.88;;;21.20;99.90;;;;;;4899864;29;20025;-72
2021/09/12 10:53:45;;;;;;;33.47;15.68;;;21.30;99.90;;;;;;4896576;29;20028;-74
2021/09/12 10:56:17;;;;;;;32.80;17.13;;;21.40;99.90;;;;;;4905525;29;20033;-73
2021/09/12 10:58:45;;;;;;;39.08;17.38;;;21.40;99.90;;;;;;4902464;29;20036;-73
2021/09/12 11:01:25;;;;;;;31.25;16.85;;;21.40;99.90;;;;;;4897093;29;20489;-72
2021/09/12 11:03:51;;;;;;;28.20;14.95;;;21.30;99.90;;;;;;4898788;29;20029;-72
2021/09/12 11:06:16;;;;;;;27.63;16.20;;;21.30;99.90;;;;;;4896786;29;20055;-73
2021/09/12 11:08:43;;;;;;;29.20;15.48;;;21.30;99.90;;;;;;4897701;29;20045;-71
2021/09/12 11:11:09;;;;;;;27.92;15.73;;;21.30;99.90;;;;;;4898714;29;20029;-71
2021/09/12 11:13:38;;;;;;;26.85;15.15;;;21.20;99.90;;;;;;4897993;29;20072;-73
2021/09/12 11:16:12;;;;;;;32.55;15.15;;;21.20;99.90;;;;;;4897424;29;20032;-71
2021/09/12 11:19:05;;;;;;;34.30;17.90;;;21.10;99.90;;;;;;4892773;29;20064;-73
2021/09/12 11:21:40;;;;;;;28.58;17.83;;;21.10;99.90;;;;;;4892852;29;20052;-72
2021/09/12 11:24:13;;;;;;;31.92;17.52;;;21.00;99.90;;;;;;4895729;29;20059;-73
2021/09/12 11:26:50;;;;;;;36.78;17.52;;;20.80;99.90;;;;;;4895961;29;20029;-72
2021/09/12 11:29:27;;;;;;;33.45;18.58;;;20.70;99.90;;;;;;4901257;29;20024;-73
2021/09/12 11:31:58;;;;;;;22.55;11.75;;;20.70;99.90;;;;;;4908111;29;20040;-73
2021/09/12 11:34:25;;;;;;;32.85;17.17;;;20.60;99.90;;;;;;4904856;29;20028;-72
2021/09/12 11:36:56;;;;;;;25.50;16.13;;;20.60;99.90;;;;;;4900229;29;20044;-73
2021/09/12 11:39:23;;;;;;;32.33;16.70;;;20.60;99.90;;;;;;4900895;29;20036;-73
2021/09/12 11:41:49;;;;;;;32.47;17.85;;;20.60;99.90;;;;;;4902190;29;20064;-73
2021/09/12 11:44:14;;;;;;;38.17;18.95;;;20.70;99.90;;;;;;4908059;29;20020;-74
2021/09/12 11:46:51;;;;;;;37.28;17.98;;;20.80;99.90;;;;;;4909593;29;20029;-73
2021/09/12 11:49:17;;;;;;;31.65;18.13;;;20.90;99.90;;;;;;4910982;29;20032;-73
2021/09/12 11:51:48;;;;;;;33.03;17.45;;;21.00;99.90;;;;;;4907976;29;20099;-72
2021/09/12 11:54:22;;;;;;;30.15;16.17;;;21.20;99.90;;;;;;4911451;29;20029;-72
2021/09/12 11:56:55;;;;;;;31.85;17.58;;;21.30;99.90;;;;;;4911754;29;20025;-71
2021/09/12 11:59:22;;;;;;;32.42;17.95;;;21.30;99.90;;;;;;4908450;29;20029;-72
2021/09/12 12:01:49;;;;;;;34.33;17.60;;;21.40;99.90;;;;;;4909975;29;20029;-73
2021/09/12 12:04:15;;;;;;;27.33;16.00;;;21.70;99.90;;;;;;4907457;29;20049;-72
2021/09/12 12:06:44;;;;;;;27.55;15.15;;;21.90;99.90;;;;;;4907357;29;20477;-72
2021/09/12 12:09:13;;;;;;;33.58;14.35;;;21.80;99.90;;;;;;4910243;29;20020;-72
2021/09/12 12:11:41;;;;;;;28.23;14.65;;;21.70;99.90;;;;;;4907330;29;20044;-72
2021/09/12 12:14:16;;;;;;;23.98;12.77;;;21.50;99.90;;;;;;4909268;29;20028;-73
2021/09/12 12:16:42;;;;;;;23.98;13.98;;;21.40;99.90;;;;;;4912195;29;20040;-72
2021/09/12 12:19:10;;;;;;;23.95;14.23;;;21.20;99.90;;;;;;4911499;29;20036;-71
2021/09/12 12:21:38;;;;;;;18.35;11.38;;;21.10;99.90;;;;;;4910289;29;20055;-73
2021/09/12 12:24:33;;;;;;;18.77;11.90;;;21.00;99.90;;;;;;4911926;29;20093;-72
2021/09/12 12:27:08;;;;;;;18.10;8.18;;;20.90;99.90;;;;;;4912499;29;20061;-72
2021/09/12 12:29:36;;;;;;;6.10;4.32;;;20.90;99.90;;;;;;4927916;29;20025;-72
2021/09/12 12:32:05;;;;;;;4.32;2.92;;;20.90;99.90;;;;;;4913166;29;20548;-72
2021/09/12 12:34:38;;;;;;;3.20;1.50;;;21.00;99.90;;;;;;4910665;29;20032;-73
2021/09/12 12:37:05;;;;;;;8.40;2.20;;;21.20;99.90;;;;;;4910287;29;20104;-72
2021/09/12 12:39:32;;;;;;;1.17;1.17;;;21.40;99.90;;;;;;4910946;29;20040;-72